Strona główna
METAR-TAF:

METAR-TAF

Lotnisko :

Port lotniczy Libreville

Libreville, Gabon

Szerokość geograficzna: 00-27N, Długość geograficzna: 009-25E, wysokość: 12 m

Aktualna obserwacja pogody

Raport powstał 50 minut temu, godzina 19:00 UTC
Wiatr 6 kt od południe, zmienny między południowo-południowy wschód i południowy zachód
Temperatura 25°C
Wilgotność 79%
Ciśnienie 1015 hPa
Widzialność 10 km lub więcej
Rozproszone chmury na wysokości 1800 ft

METAR: FOOL 201900Z 19006KT 150V230 9999 SCT018 25/21 Q1015 NOSIG

czas: 20:50 (19:50 UTC)

Prognoza

Raport powstał 2 godziny i 50 minut temu, godzina 17:00 UTC
Prognoza ważna od 20 godzina 18 UTC do 21 godzina 24 UTC
Wiatr 6 kt od południe
Widzialność 10 km lub więcej
Rozproszone chmury na wysokości 1200 ft
Przerywane chmury na wysokości 2600 ft

TAF: FOOL 201700Z 2018/2124 19006KT 9999 SCT012 BKN026

Obserwacja i prognoza pogody dla ponad 4000 lotnisk (raport METAR i TAF).

Dostępne stacje oznaczono żółtymi i czerwonymi punktami na mapie.

Najedź kursorem aby zobaczyć nazwę stacji.

Kliknij aby zobaczyć obserwacje i prognozy pogody.

Aby zmienić mapę: kliknij na zielony przycisk z czarnym krzyżykiem, aby powiększyć; na zielony przycisk z myślnikiem, aby pomniejszyć; na zielone strzałki, aby przejść do map sąsiednich.


METAR-TAF: